Time;durP1;ratioP1;P1;durP2;ratioP2;P2;SDS_P1;SDS_P2;PMS_P1;PMS_P2;Temp;Humidity;BMP_temperature;BMP_pressure;BME280_temperature;BME280_humidity;BME280_pressure;Samples;Min_cycle;Max_cycle;Signal;HPM_P1;HPM_P2
2023/03/20 00:02:20;;;;;;;;;32.00;24.25;;;;;9.29;100.00;101916.41;5055605;28;63766;-82
2023/03/20 00:04:46;;;;;;;;;31.75;25.25;;;;;9.30;100.00;101918.19;5054964;28;45391;-79
2023/03/20 00:07:11;;;;;;;;;32.00;27.25;;;;;9.26;100.00;101913.66;5055549;28;46538;-80
2023/03/20 00:09:38;;;;;;;;;27.50;24.00;;;;;9.27;100.00;101918.09;5059322;28;45420;-82
2023/03/20 00:12:04;;;;;;;;;23.75;22.50;;;;;9.25;100.00;101922.41;5052123;28;47290;-80
2023/03/20 00:14:29;;;;;;;;;31.25;27.50;;;;;9.25;100.00;101924.16;5047722;28;45307;-80
2023/03/20 00:16:55;;;;;;;;;32.75;24.75;;;;;9.23;100.00;101932.00;5050831;28;45493;-82
2023/03/20 00:19:22;;;;;;;;;28.75;22.25;;;;;9.22;100.00;101930.22;5054950;28;52069;-82
2023/03/20 00:21:49;;;;;;;;;29.00;24.50;;;;;9.22;100.00;101939.88;5056309;28;45385;-81
2023/03/20 00:24:15;;;;;;;;;29.00;22.00;;;;;9.22;100.00;101930.22;5055707;28;45347;-80
2023/03/20 00:26:42;;;;;;;;;31.50;23.50;;;;;9.21;100.00;101930.16;5050486;28;47436;-80
2023/03/20 00:31:43;;;;;;;;;26.50;25.25;;;;;9.16;100.00;101924.72;5054367;22;45546;-81
2023/03/20 00:34:14;;;;;;;;;30.50;23.00;;;;;9.14;100.00;101924.69;5035057;28;45557;-81
2023/03/20 00:36:39;;;;;;;;;26.50;18.75;;;;;9.15;100.00;101931.72;5029754;28;46540;-80
2023/03/20 00:39:06;;;;;;;;;23.75;22.75;;;;;9.15;100.00;101933.47;5031087;28;45312;-81
2023/03/20 00:41:37;;;;;;;;;19.75;19.75;;;;;9.15;100.00;101928.19;5026376;28;45508;-81
2023/03/20 00:44:17;;;;;;;;;15.75;15.75;;;;;9.13;100.00;101930.78;5023788;28;45341;-80
2023/03/20 00:46:44;;;;;;;;;25.25;21.00;;;;;9.13;100.00;101924.63;5007694;28;47615;-80
2023/03/20 00:49:10;;;;;;;;;26.00;19.00;;;;;9.12;100.00;101920.22;5023505;28;45348;-80
2023/03/20 00:51:37;;;;;;;;;23.50;20.50;;;;;9.09;100.00;101920.09;5036956;28;45399;-80
2023/03/20 00:54:08;;;;;;;;;24.50;18.25;;;;;9.10;100.00;101929.78;5035742;28;45627;-79
2023/03/20 00:56:39;;;;;;;;;26.25;19.25;;;;;9.07;100.00;101925.31;5020102;28;46799;-81
2023/03/20 00:59:06;;;;;;;;;22.00;19.00;;;;;9.07;100.00;101924.44;5015767;28;45428;-80
2023/03/20 01:01:31;;;;;;;;;21.25;17.25;;;;;9.04;100.00;101919.03;5032059;28;45191;-82
2023/03/20 01:03:58;;;;;;;;;25.25;16.50;;;;;9.02;100.00;101924.25;5026069;28;45320;-80
2023/03/20 01:06:23;;;;;;;;;25.00;18.75;;;;;9.03;100.00;101920.78;5036943;28;45817;-80
2023/03/20 01:08:48;;;;;;;;;21.50;17.25;;;;;9.04;100.00;101924.31;5028560;28;45428;-81
2023/03/20 01:11:16;;;;;;;;;29.50;18.75;;;;;9.04;100.00;101913.78;5013926;28;60489;-80
2023/03/20 01:13:41;;;;;;;;;25.25;21.50;;;;;9.03;100.00;101919.88;5006737;28;45337;-82
2023/03/20 01:16:18;;;;;;;;;22.00;18.25;;;;;9.05;100.00;101923.47;5004163;28;64951;-81
2023/03/20 01:18:44;;;;;;;;;22.00;16.25;;;;;9.04;100.00;101933.09;5019473;28;45429;-80
2023/03/20 01:21:09;;;;;;;;;22.25;17.75;;;;;9.04;100.00;101932.22;5035387;28;45311;-82
2023/03/20 01:23:34;;;;;;;;;21.75;19.50;;;;;9.02;100.00;101933.91;5032930;28;45467;-81
2023/03/20 01:26:00;;;;;;;;;19.25;16.75;;;;;8.99;100.00;101928.53;5035896;28;69336;-81
2023/03/20 01:28:26;;;;;;;;;22.00;16.00;;;;;8.99;100.00;101932.03;5031352;28;64802;-80
2023/03/20 01:30:51;;;;;;;;;17.00;15.50;;;;;8.96;100.00;101929.31;5013589;28;45360;-80
2023/03/20 01:33:22;;;;;;;;;22.50;16.00;;;;;8.97;100.00;101932.84;5032018;28;45940;-79
2023/03/20 01:35:49;;;;;;;;;22.00;20.00;;;;;8.93;100.00;101934.47;5010230;28;47589;-80
2023/03/20 01:38:18;;;;;;;;;14.25;13.75;;;;;8.92;100.00;101933.56;5009312;28;45472;-80
2023/03/20 01:40:56;;;;;;;;;15.00;15.00;;;;;8.92;100.00;101923.03;5007444;28;45228;-80
2023/03/20 01:43:22;;;;;;;;;22.75;18.25;;;;;8.91;100.00;101923.88;5025507;28;45226;-80
2023/03/20 01:46:08;;;;;;;;;15.50;12.50;;;;;8.91;100.00;101923.00;5002606;28;46497;-81
2023/03/20 01:48:48;;;;;;;;;16.00;14.25;;;;;8.89;100.00;101919.38;4994836;28;45624;-79
2023/03/20 01:51:15;;;;;;;;;16.25;13.25;;;;;8.88;100.00;101909.72;5028221;28;45262;-81
2023/03/20 01:53:40;;;;;;;;;21.00;15.75;;;;;8.86;100.00;101908.78;5015468;28;45472;-81
2023/03/20 01:56:06;;;;;;;;;19.25;15.75;;;;;8.84;100.00;101919.25;5022124;28;69034;-80
2023/03/20 01:58:36;;;;;;;;;15.25;11.25;;;;;8.82;100.00;101915.66;5013036;28;45527;-81
2023/03/20 02:01:03;;;;;;;;;16.25;15.00;;;;;8.79;100.00;101909.38;5012618;28;45428;-81
2023/03/20 02:03:28;;;;;;;;;15.75;12.00;;;;;8.76;100.00;101922.44;5028315;28;45289;-80
2023/03/20 02:05:54;;;;;;;;;4.25;3.75;;;;;8.76;100.00;101915.44;5027301;28;71790;-80
2023/03/20 02:08:27;;;;;;;;;19.75;16.25;;;;;8.76;100.00;101917.19;5026159;28;45503;-80
2023/03/20 02:10:53;;;;;;;;;17.00;14.00;;;;;8.73;100.00;101911.78;5031631;28;45448;-82
2023/03/20 02:13:20;;;;;;;;;22.00;15.50;;;;;8.71;100.00;101903.84;4992990;28;45630;-81
2023/03/20 02:15:58;;;;;;;;;20.75;14.50;;;;;8.66;100.00;101910.69;5036632;28;46896;-80
2023/03/20 02:18:24;;;;;;;;;16.00;13.50;;;;;8.64;100.00;101897.47;5033525;28;45458;-81
2023/03/20 02:21:18;;;;;;;;;17.00;16.00;;;;;8.59;100.00;101885.00;5019177;28;45460;-79
2023/03/20 02:23:51;;;;;;;;;17.25;13.50;;;;;8.60;100.00;101906.09;5025039;28;46380;-80
2023/03/20 02:26:39;;;;;;;;;14.25;12.25;;;;;8.58;100.00;101907.78;5016319;28;47448;-80
2023/03/20 02:29:49;;;;;;;;;18.25;11.50;;;;;8.56;100.00;101906.81;5016062;28;45472;-80
2023/03/20 02:32:33;;;;;;;;;21.25;17.25;;;;;8.56;100.00;101905.94;5030720;28;45538;-81
2023/03/20 02:35:18;;;;;;;;;15.75;14.25;;;;;8.52;100.00;101910.19;5030898;28;45332;-82
2023/03/20 02:38:10;;;;;;;;;14.75;14.00;;;;;8.53;100.00;101903.19;5010238;28;47726;-79
2023/03/20 02:41:18;;;;;;;;;21.00;16.00;;;;;8.53;100.00;101903.19;5012565;28;46275;-80
2023/03/20 02:43:57;;;;;;;;;12.75;11.75;;;;;8.52;100.00;101906.66;5003246;28;45561;-80
2023/03/20 02:46:34;;;;;;;;;17.00;16.25;;;;;8.52;100.00;101898.75;5002618;28;45479;-80
2023/03/20 02:49:53;;;;;;;;;14.25;12.50;;;;;8.51;100.00;101905.75;5015982;28;47508;-81
2023/03/20 02:52:29;;;;;;;;;14.25;12.00;;;;;8.50;100.00;101900.44;4953479;28;45579;-81
2023/03/20 02:55:20;;;;;;;;;20.75;13.25;;;;;8.48;100.00;101895.13;4964496;28;45430;-80
2023/03/20 02:57:48;;;;;;;;;14.75;12.50;;;;;8.47;100.00;101893.34;5012060;28;45337;-80
2023/03/20 03:00:19;;;;;;;;;15.50;11.50;;;;;8.47;100.00;101884.53;5027419;28;47538;-80
2023/03/20 03:02:53;;;;;;;;;21.00;12.50;;;;;8.45;100.00;101892.38;5029894;28;45495;-80
2023/03/20 03:05:24;;;;;;;;;11.25;11.25;;;;;8.45;100.00;101887.09;5008437;28;45515;-80
2023/03/20 03:07:51;;;;;;;;;18.75;12.75;;;;;8.48;100.00;101881.06;5012054;28;45263;-80
2023/03/20 03:10:37;;;;;;;;;8.00;5.00;;;;;8.48;100.00;101881.97;5029883;28;45623;-80
2023/03/20 03:13:05;;;;;;;;;17.00;13.25;;;;;8.46;100.00;101891.53;5023843;28;45424;-79
2023/03/20 03:15:37;;;;;;;;;22.75;11.75;;;;;8.48;100.00;101896.88;5005340;28;45384;-80
2023/03/20 03:18:05;;;;;;;;;17.00;12.25;;;;;8.47;100.00;101898.59;5008246;28;45588;-80
2023/03/20 03:20:33;;;;;;;;;10.25;10.00;;;;;8.49;100.00;101896.03;5009727;28;47431;-80
2023/03/20 03:23:00;;;;;;;;;12.75;12.75;;;;;8.48;100.00;101894.25;5032427;28;45586;-80
2023/03/20 03:25:29;;;;;;;;;15.50;12.25;;;;;8.48;100.00;101895.13;5000102;28;45366;-80
2023/03/20 03:28:26;;;;;;;;;15.75;14.75;;;;;8.46;100.00;101891.53;5013407;28;45486;-80
2023/03/20 03:30:53;;;;;;;;;17.50;10.50;;;;;8.46;100.00;101891.53;5012463;28;47712;-81
2023/03/20 03:33:20;;;;;;;;;15.75;13.25;;;;;8.44;100.00;101887.94;5010389;28;45897;-80
2023/03/20 03:35:46;;;;;;;;;19.25;15.50;;;;;8.44;100.00;101894.97;5012326;28;45327;-81
2023/03/20 03:38:40;;;;;;;;;13.75;13.75;;;;;8.42;100.00;101886.13;5010035;28;45752;-80
2023/03/20 03:41:12;;;;;;;;;19.75;14.50;;;;;8.38;100.00;101883.38;5004258;28;47534;-80
2023/03/20 03:44:04;;;;;;;;;16.75;13.75;;;;;8.39;100.00;101879.88;5015689;28;45462;-81
2023/03/20 03:46:43;;;;;;;;;15.25;12.75;;;;;8.36;100.00;101874.53;4983104;28;45291;-80
2023/03/20 03:49:13;;;;;;;;;15.00;13.75;;;;;8.37;100.00;101872.78;5002582;28;45591;-81
2023/03/20 03:51:41;;;;;;;;;16.00;14.75;;;;;8.33;100.00;101868.22;5000722;28;47611;-81
2023/03/20 03:54:14;;;;;;;;;17.00;15.00;;;;;8.32;100.00;101866.44;5009592;28;45380;-82
2023/03/20 03:56:42;;;;;;;;;19.00;15.50;;;;;8.33;100.00;101874.38;4998423;28;45310;-81
2023/03/20 03:59:17;;;;;;;;;13.25;13.25;;;;;8.34;100.00;101870.88;5009584;28;45615;-81
2023/03/20 04:01:43;;;;;;;;;17.75;15.00;;;;;8.34;100.00;101870.88;5011175;28;46666;-81
2023/03/20 04:04:09;;;;;;;;;24.75;14.75;;;;;8.34;100.00;101865.63;5017006;28;45477;-81
2023/03/20 04:06:35;;;;;;;;;16.75;14.00;;;;;8.37;100.00;101873.69;5013301;28;45518;-81
2023/03/20 04:09:00;;;;;;;;;15.00;14.75;;;;;8.41;100.00;101874.66;5016476;28;45642;-80
2023/03/20 04:11:29;;;;;;;;;12.25;12.00;;;;;8.39;100.00;101869.34;5014204;28;46181;-80
2023/03/20 04:13:54;;;;;;;;;20.00;14.75;;;;;8.41;100.00;101882.56;5015221;28;45466;-80
2023/03/20 04:16:21;;;;;;;;;17.75;14.75;;;;;8.43;100.00;101890.53;5012725;28;59699;-80
2023/03/20 04:18:47;;;;;;;;;19.75;15.25;;;;;8.44;100.00;101889.69;5012019;28;45427;-80
2023/03/20 04:21:12;;;;;;;;;16.75;12.50;;;;;8.44;100.00;101885.31;5013719;28;47239;-80
2023/03/20 04:23:38;;;;;;;;;19.25;15.00;;;;;8.46;100.00;101895.91;5010475;28;45362;-80
2023/03/20 04:26:04;;;;;;;;;19.00;15.75;;;;;8.46;100.00;101894.16;5008157;28;45283;-80
2023/03/20 04:28:30;;;;;;;;;12.00;12.00;;;;;8.44;100.00;101895.84;4985690;28;45595;-80
2023/03/20 04:30:57;;;;;;;;;6.50;2.00;;;;;8.41;100.00;101893.09;5028732;28;47517;-80
2023/03/20 04:33:24;;;;;;;;;21.00;17.00;;;;;8.40;100.00;101897.47;5034938;28;45300;-81
2023/03/20 04:35:49;;;;;;;;;15.25;13.25;;;;;8.37;100.00;101907.91;5015894;28;45408;-81
2023/03/20 04:38:15;;;;;;;;;15.00;12.75;;;;;8.38;100.00;101904.41;5013596;28;45519;-81
2023/03/20 04:40:40;;;;;;;;;15.25;13.00;;;;;8.37;100.00;101905.25;5030811;28;46534;-80
2023/03/20 04:43:06;;;;;;;;;18.25;14.00;;;;;8.38;100.00;101911.41;5026549;28;54452;-81
2023/03/20 04:45:31;;;;;;;;;14.75;14.75;;;;;8.38;100.00;101900.91;5034194;28;62290;-80
2023/03/20 04:47:56;;;;;;;;;11.25;11.25;;;;;8.40;100.00;101888.69;5028889;28;62659;-80
2023/03/20 04:50:21;;;;;;;;;16.50;12.50;;;;;8.45;100.00;101895.00;5032250;28;71025;-80
2023/03/20 04:52:47;;;;;;;;;18.50;16.00;;;;;8.44;100.00;101893.22;5035827;28;68441;-80
2023/03/20 04:55:12;;;;;;;;;12.75;10.00;;;;;8.44;100.00;101887.94;5025657;28;62582;-80
2023/03/20 04:57:38;;;;;;;;;13.25;12.75;;;;;8.44;100.00;101890.59;5022258;28;45554;-80
2023/03/20 05:00:04;;;;;;;;;14.00;11.00;;;;;8.49;100.00;101893.38;5030567;28;46694;-81
2023/03/20 05:02:29;;;;;;;;;11.75;11.75;;;;;8.49;100.00;101886.38;5027259;28;45283;-80
2023/03/20 05:04:55;;;;;;;;;11.75;11.75;;;;;8.52;100.00;101888.22;5036200;28;64634;-80
2023/03/20 05:07:20;;;;;;;;;12.75;12.75;;;;;8.55;100.00;101883.97;5036212;28;45332;-80
2023/03/20 05:09:46;;;;;;;;;14.75;8.75;;;;;8.56;100.00;101879.59;5018098;28;46084;-81
2023/03/20 05:12:11;;;;;;;;;11.00;11.00;;;;;8.61;100.00;101878.91;5035323;28;45391;-81
2023/03/20 05:14:37;;;;;;;;;16.00;12.00;;;;;8.65;100.00;101888.72;5024940;28;45400;-80
2023/03/20 05:17:02;;;;;;;;;10.75;8.00;;;;;8.71;100.00;101890.69;5013419;28;65110;-80
2023/03/20 05:19:28;;;;;;;;;15.00;10.75;;;;;8.77;100.00;101887.38;5017930;28;46127;-80
2023/03/20 05:21:53;;;;;;;;;11.25;10.00;;;;;8.82;100.00;101885.78;5031390;28;47154;-80
2023/03/20 05:24:18;;;;;;;;;16.25;11.50;;;;;8.85;100.00;101886.81;5030547;28;45335;-81
2023/03/20 05:26:44;;;;;;;;;10.75;9.00;;;;;8.91;100.00;101886.13;5005516;28;55901;-80
2023/03/20 05:29:09;;;;;;;;;15.50;10.00;;;;;8.93;100.00;101880.03;5026176;28;47815;-80
2023/03/20 05:31:35;;;;;;;;;7.00;7.00;;;;;8.98;100.00;101882.84;5024662;28;45582;-80
2023/03/20 05:34:01;;;;;;;;;12.00;7.75;;;;;9.01;100.00;101879.44;5031855;28;45490;-81
2023/03/20 05:36:27;;;;;;;;;11.50;11.00;;;;;9.03;100.00;101872.47;5001509;28;45522;-80
2023/03/20 05:38:52;;;;;;;;;11.75;10.50;;;;;9.04;100.00;101877.78;5027801;28;68753;-80
2023/03/20 05:41:17;;;;;;;;;11.00;9.75;;;;;9.08;100.00;101884.94;5017452;28;62608;-80
2023/03/20 05:43:43;;;;;;;;;8.25;8.25;;;;;9.11;100.00;101890.34;5036960;28;45637;-80
2023/03/20 05:46:08;;;;;;;;;12.00;9.25;;;;;9.13;100.00;101886.00;5034293;28;45484;-86
2023/03/20 05:48:34;;;;;;;;;12.25;8.50;;;;;9.16;100.00;101880.84;4989751;28;48738;-85
2023/03/20 05:50:59;;;;;;;;;11.75;7.25;;;;;9.18;100.00;101883.53;5018757;28;46518;-85
2023/03/20 05:53:24;;;;;;;;;14.00;9.25;;;;;9.19;100.00;101874.78;5017824;28;45314;-81
2023/03/20 05:55:50;;;;;;;;;9.25;9.00;;;;;9.23;100.00;101883.69;5033096;28;62032;-83
2023/03/20 05:58:15;;;;;;;;;16.50;9.25;;;;;9.29;100.00;101886.53;5028968;28;53468;-84
2023/03/20 06:00:40;;;;;;;;;13.25;8.00;;;;;9.30;100.00;101891.84;5014549;28;45479;-92
2023/03/20 06:03:06;;;;;;;;;12.50;9.75;;;;;9.34;100.00;101898.13;5006304;28;60651;-86
2023/03/20 06:05:32;;;;;;;;;10.00;8.00;;;;;9.33;100.00;101902.50;5001483;28;45294;-80
2023/03/20 06:07:58;;;;;;;;;8.00;8.00;;;;;9.37;100.00;101901.72;5030517;28;46826;-80
2023/03/20 06:10:23;;;;;;;;;12.75;10.25;;;;;9.40;100.00;101900.94;5030845;28;69739;-82
2023/03/20 06:12:49;;;;;;;;;11.75;10.00;;;;;9.41;100.00;101901.00;5032092;28;65061;-83
2023/03/20 06:15:14;;;;;;;;;11.00;8.75;;;;;9.44;100.00;101902.84;5036108;28;45423;-81
2023/03/20 06:17:39;;;;;;;;;12.00;9.25;;;;;9.49;100.00;101906.53;5036571;28;51893;-82
2023/03/20 06:20:05;;;;;;;;;11.25;8.00;;;;;9.53;100.00;101905.75;5032193;28;45530;-80
2023/03/20 06:22:31;;;;;;;;;8.75;7.00;;;;;9.57;100.00;101905.00;5018105;28;45416;-82
2023/03/20 06:24:56;;;;;;;;;9.00;5.50;;;;;9.64;100.00;101901.75;5033639;28;45436;-80
2023/03/20 06:27:22;;;;;;;;;5.00;4.00;;;;;9.73;100.00;101916.94;5036469;28;51182;-80
2023/03/20 06:29:47;;;;;;;;;1.50;1.50;;;;;9.81;100.00;101907.56;5027156;28;67547;-81
2023/03/20 06:32:13;;;;;;;;;2.00;2.00;;;;;9.91;100.00;101892.91;5012152;28;52195;-81
2023/03/20 06:34:40;;;;;;;;;2.00;2.00;;;;;9.98;100.00;101885.22;5028783;28;45519;-80
2023/03/20 06:37:05;;;;;;;;;3.25;2.00;;;;;10.08;100.00;101882.88;5027384;28;47052;-80
2023/03/20 06:39:31;;;;;;;;;3.25;2.00;;;;;10.12;100.00;101877.72;5004963;28;45412;-79
2023/03/20 06:41:56;;;;;;;;;2.00;2.00;;;;;10.18;100.00;101861.19;5027846;28;45411;-82
2023/03/20 06:44:21;;;;;;;;;3.00;2.00;;;;;10.25;100.00;101876.38;5029947;28;62529;-80
2023/03/20 06:46:47;;;;;;;;;3.00;3.00;;;;;10.30;100.00;101880.03;5036521;28;45379;-80
2023/03/20 06:49:12;;;;;;;;;3.00;2.00;;;;;10.38;100.00;101880.25;5035859;28;63520;-80
2023/03/20 06:51:38;;;;;;;;;2.25;2.00;;;;;10.44;100.00;101883.97;5035752;28;60138;-82
2023/03/20 06:54:03;;;;;;;;;1.33;1.33;;;;;10.51;100.00;101882.38;5017230;28;45542;-81
2023/03/20 06:56:29;;;;;;;;;3.25;2.00;;;;;10.57;100.00;101877.28;5025842;28;46926;-80
2023/03/20 06:58:55;;;;;;;;;3.00;1.67;;;;;10.63;100.00;101876.53;5033962;28;45541;-81
2023/03/20 07:01:20;;;;;;;;;4.00;2.33;;;;;10.64;100.00;101886.25;5031813;28;45510;-80
2023/03/20 07:03:46;;;;;;;;;3.00;1.00;;;;;10.65;100.00;101888.97;5033182;28;58008;-82
2023/03/20 07:06:12;;;;;;;;;2.00;2.00;;;;;10.69;100.00;101888.16;5015980;28;46384;-81
2023/03/20 07:08:37;;;;;;;;;2.00;2.00;;;;;10.76;100.00;101891.91;5038906;28;45521;-83
2023/03/20 07:11:03;;;;;;;;;4.00;3.00;;;;;10.82;100.00;101880.59;5034008;28;45596;-81
2023/03/20 07:13:29;;;;;;;;;2.67;2.67;;;;;10.90;100.00;101893.13;5036042;28;45391;-82
2023/03/20 07:15:57;;;;;;;;;1.67;1.67;;;;;11.01;100.00;101902.25;5032826;28;46591;-81
2023/03/20 07:18:23;;;;;;;;;1.00;1.00;;;;;11.10;100.00;101896.31;5017920;28;45365;-82
2023/03/20 07:20:51;;;;;;;;;3.00;1.00;;;;;11.23;100.00;101892.22;5026049;28;45435;-84
2023/03/20 07:23:16;;;;;;;;;1.00;1.00;;;;;11.31;100.00;101889.78;5033220;28;45701;-81
2023/03/20 07:25:41;;;;;;;;;1.00;1.00;;;;;11.38;100.00;101891.72;4992291;28;48504;-81
2023/03/20 07:28:07;;;;;;;;;5.00;2.00;;;;;11.41;100.00;101891.81;5015726;28;71753;-80
2023/03/20 07:30:32;;;;;;;;;2.00;1.00;;;;;11.42;100.00;101891.84;5033190;28;63794;-84
2023/03/20 07:32:57;;;;;;;;;2.00;1.00;;;;;11.44;100.00;101898.03;5020032;28;45357;-82
2023/03/20 07:35:23;;;;;;;;;3.00;2.00;;;;;11.45;100.00;101893.63;5034160;28;51191;-83
2023/03/20 07:37:48;;;;;;;;;3.00;3.00;;;;;11.49;100.00;101896.41;5019303;28;45456;-83
2023/03/20 07:40:14;;;;;;;;;2.67;1.00;;;;;11.55;100.00;101896.53;5015783;28;52073;-84
2023/03/20 07:42:39;;;;;;;;;1.67;1.00;;;;;11.64;100.00;101892.34;5034164;28;45664;-84
2023/03/20 07:45:05;;;;;;;;;5.33;3.00;;;;;11.70;100.00;101906.59;5034332;28;46104;-86
2023/03/20 07:47:31;;;;;;;;;2.67;2.00;;;;;11.76;100.00;101901.44;5020226;28;45294;-80
2023/03/20 07:49:56;;;;;;;;;5.67;3.33;;;;;11.84;100.00;101893.75;5019611;28;66010;-82
2023/03/20 07:52:21;;;;;;;;;2.00;2.00;;;;;11.93;100.00;101903.63;5003964;28;65091;-84
2023/03/20 07:54:47;;;;;;;;;4.33;2.00;;;;;11.99;100.00;101885.25;5024612;28;46462;-83
2023/03/20 07:57:12;;;;;;;;;4.00;2.00;;;;;12.07;100.00;101883.66;5008719;28;45522;-83
2023/03/20 07:59:37;;;;;;;;;8.67;3.33;;;;;12.14;100.00;101890.84;5013255;28;63467;-83
2023/03/20 08:02:03;;;;;;;;;3.67;2.33;;;;;12.22;100.00;101888.41;5034879;28;54864;-86
2023/03/20 08:04:28;;;;;;;;;3.33;2.33;;;;;12.27;100.00;101887.63;5017825;28;71586;-81
2023/03/20 08:06:53;;;;;;;;;2.33;2.33;;;;;12.32;100.00;101888.63;5001831;28;69722;-84
2023/03/20 08:09:19;;;;;;;;;4.00;3.00;;;;;12.36;100.00;101884.28;5023428;28;45379;-82
2023/03/20 08:11:45;;;;;;;;;12.00;10.50;;;;;12.40;100.00;101891.41;5035777;28;60021;-82
2023/03/20 08:14:10;;;;;;;;;6.75;5.00;;;;;12.48;100.00;101888.94;5032791;28;46454;-82
2023/03/20 08:16:35;;;;;;;;;4.33;4.33;;;;;12.54;100.00;101905.84;5019025;28;70202;-79
2023/03/20 08:19:02;;;;;;;;;5.00;3.00;;;;;12.60;100.00;101897.13;5034673;28;45573;-79
2023/03/20 08:21:28;;;;;;;;;2.67;2.67;;;;;12.61;100.00;101900.66;5038192;28;45545;-80
2023/03/20 08:23:54;;;;;;;;;2.00;2.00;;;;;12.62;100.00;101905.09;5020551;28;47886;-78
2023/03/20 08:26:19;;;;;;;;;2.00;2.00;;;;;12.69;100.00;101907.00;5037951;28;45778;-80
2023/03/20 08:28:45;;;;;;;;;3.00;3.00;;;;;12.70;100.00;101909.69;5023537;28;45576;-76
2023/03/20 08:31:10;;;;;;;;;2.00;2.00;;;;;12.73;100.00;101919.44;5039095;28;61905;-77
2023/03/20 08:33:35;;;;;;;;;4.00;3.00;;;;;12.73;100.00;101919.44;5034883;28;70992;-77
2023/03/20 08:36:01;;;;;;;;;5.00;2.33;;;;;12.72;100.00;101926.50;5036547;28;64758;-78
2023/03/20 08:38:26;;;;;;;;;3.00;3.00;;;;;12.77;100.00;101923.94;5029718;28;55783;-77
2023/03/20 08:40:53;;;;;;;;;2.00;2.00;;;;;12.79;100.00;101920.47;5037696;28;45474;-78
2023/03/20 08:43:19;;;;;;;;;7.00;2.67;;;;;12.84;100.00;101929.41;5031118;28;46692;-78
2023/03/20 08:45:44;;;;;;;;;2.33;2.33;;;;;12.91;100.00;101932.19;5036544;28;45502;-77
2023/03/20 08:48:10;;;;;;;;;6.33;3.00;;;;;12.94;100.00;101938.41;5034142;28;63123;-82
2023/03/20 08:50:35;;;;;;;;;3.67;1.00;;;;;13.03;100.00;101943.00;5018775;28;46539;-78
2023/03/20 08:53:01;;;;;;;;;3.67;0.00;;;;;13.06;100.00;101940.41;5037012;28;45721;-80
2023/03/20 08:55:26;;;;;;;;;2.00;2.00;;;;;13.08;100.00;101936.91;5036845;28;45459;-80
2023/03/20 08:57:53;;;;;;;;;3.33;2.00;;;;;13.14;100.00;101932.59;5035211;28;47833;-78
2023/03/20 09:00:19;;;;;;;;;2.00;2.00;;;;;13.19;100.00;101922.97;5038228;28;45329;-79
2023/03/20 09:02:44;;;;;;;;;4.00;2.33;;;;;13.27;100.00;101924.03;5037023;28;46681;-79
2023/03/20 09:05:10;;;;;;;;;5.33;2.00;;;;;13.30;100.00;101917.00;5036905;28;58259;-79
2023/03/20 09:07:36;;;;;;;;;4.00;1.67;;;;;13.35;100.00;101920.63;5034735;28;45606;-80
2023/03/20 09:10:02;;;;;;;;;3.33;2.67;;;;;13.44;100.00;101917.25;5037622;28;45523;-83
2023/03/20 09:12:27;;;;;;;;;3.00;2.00;;;;;13.44;100.00;101909.28;5035411;28;46687;-81
2023/03/20 09:14:52;;;;;;;;;4.67;2.67;;;;;13.46;100.00;101901.34;5030934;28;56721;-79
2023/03/20 09:17:18;;;;;;;;;1.00;1.00;;;;;13.44;100.00;101900.44;5036556;28;61817;-79
2023/03/20 09:19:43;;;;;;;;;1.00;1.00;;;;;13.45;100.00;101896.91;5029429;28;57074;-82
2023/03/20 09:22:14;;;;;;;;;5.67;3.00;;;;;13.45;100.00;101900.47;5032313;28;45754;-79
2023/03/20 09:24:39;;;;;;;;;3.33;3.33;;;;;13.47;100.00;101895.16;5014900;28;45494;-78
2023/03/20 09:27:05;;;;;;;;;2.33;2.33;;;;;13.49;100.00;101891.69;5033355;28;45222;-79
2023/03/20 09:29:30;;;;;;;;;3.33;2.00;;;;;13.52;100.00;101893.47;5035954;28;66239;-78
2023/03/20 09:31:56;;;;;;;;;2.00;2.00;;;;;13.58;100.00;101886.53;5035014;28;47172;-77
2023/03/20 09:34:21;;;;;;;;;6.00;3.00;;;;;13.68;100.00;101886.66;5033680;28;61488;-78
2023/03/20 09:36:47;;;;;;;;;3.33;1.00;;;;;13.78;100.00;101888.56;5017491;28;45336;-78
2023/03/20 09:39:12;;;;;;;;;4.67;2.00;;;;;13.88;100.00;101893.16;5031474;28;60826;-79
2023/03/20 09:41:38;;;;;;;;;2.33;2.00;;;;;13.89;100.00;101893.16;5034832;28;45479;-83
2023/03/20 09:44:13;;;;;;;;;3.00;2.67;;;;;13.92;100.00;101895.00;5035797;28;45431;-80
2023/03/20 09:47:02;;;;;;;;;3.00;3.00;;;;;13.99;100.00;101895.97;5032623;28;45480;-79
2023/03/20 09:49:40;;;;;;;;;1.00;1.00;;;;;14.04;100.00;101903.13;5024848;28;45503;-80
2023/03/20 09:52:34;;;;;;;;;2.00;2.00;;;;;14.10;100.00;101897.00;5014254;28;47815;-78
2023/03/20 09:55:06;;;;;;;;;3.00;2.00;;;;;14.16;100.00;101907.69;5004224;28;45733;-79
2023/03/20 09:57:39;;;;;;;;;3.67;1.00;;;;;14.19;100.00;101907.75;5012465;28;45337;-77
2023/03/20 10:00:28;;;;;;;;;1.67;1.67;;;;;14.25;100.00;101902.50;5013918;28;45509;-78
2023/03/20 10:03:16;;;;;;;;;2.67;1.00;;;;;14.34;100.00;101899.09;5022960;28;46481;-78
2023/03/20 10:05:47;;;;;;;;;1.00;0.67;;;;;14.37;100.00;101901.78;5019100;28;45516;-79
2023/03/20 10:08:15;;;;;;;;;1.00;1.00;;;;;14.36;100.00;101895.56;5032249;28;45571;-80
2023/03/20 10:11:05;;;;;;;;;1.00;1.00;;;;;14.37;100.00;101893.81;5042610;28;45557;-77
2023/03/20 10:13:37;;;;;;;;;1.00;1.00;;;;;14.37;99.93;101883.19;5014640;28;47990;-80
2023/03/20 10:16:11;;;;;;;;;1.00;1.00;;;;;14.35;99.54;101893.78;5036380;28;45456;-77
2023/03/20 10:18:40;;;;;;;;;1.00;1.00;;;;;14.31;98.68;101886.66;5032404;28;45327;-79
2023/03/20 10:21:17;;;;;;;;;2.33;1.00;;;;;14.28;98.91;101878.66;5017136;28;45338;-78
2023/03/20 10:23:49;;;;;;;;;1.00;1.00;;;;;14.27;98.81;101878.63;5018220;28;47387;-78
2023/03/20 10:26:21;;;;;;;;;1.67;1.67;;;;;14.25;98.38;101869.75;5036775;28;45376;-79
2023/03/20 10:29:05;;;;;;;;;1.00;1.00;;;;;14.29;98.72;101861.84;5013526;28;45508;-77
2023/03/20 10:31:55;;;;;;;;;1.00;1.00;;;;;14.34;98.46;101859.25;5011572;28;45918;-78
2023/03/20 10:34:43;;;;;;;;;3.00;2.00;;;;;14.44;98.66;101868.22;5016135;28;47342;-78
2023/03/20 10:37:46;;;;;;;;;2.00;2.00;;;;;14.53;98.71;101877.19;5004615;28;45480;-78
2023/03/20 10:40:28;;;;;;;;;3.67;2.00;;;;;14.63;98.05;101875.53;5028571;28;45463;-80
2023/03/20 10:42:58;;;;;;;;;2.00;2.00;;;;;14.77;98.61;101878.38;5014611;28;45432;-79
2023/03/20 10:45:40;;;;;;;;;4.00;1.33;;;;;15.03;97.90;101881.28;5016367;28;47130;-79
2023/03/20 10:48:25;;;;;;;;;3.00;2.00;;;;;15.30;98.29;101862.00;5006775;28;45811;-79
2023/03/20 10:50:55;;;;;;;;;1.00;1.00;;;;;15.47;97.51;101863.03;4999970;28;45534;-80
2023/03/20 10:53:41;;;;;;;;;2.00;2.00;;;;;15.57;96.35;101864.88;5034913;28;45681;-79
2023/03/20 10:56:14;;;;;;;;;1.00;1.00;;;;;15.59;95.67;101865.75;5015314;28;46407;-80
2023/03/20 10:58:46;;;;;;;;;2.00;2.00;;;;;15.63;95.92;101864.06;5014663;28;45352;-80
2023/03/20 11:01:11;;;;;;;;;2.33;1.00;;;;;15.70;95.34;101871.19;5016050;28;45432;-80
2023/03/20 11:03:38;;;;;;;;;4.00;1.00;;;;;15.75;95.31;101857.91;5030618;28;45606;-79
2023/03/20 11:06:16;;;;;;;;;1.33;1.33;;;;;15.81;94.77;101842.84;5032311;28;46479;-78
2023/03/20 11:08:46;;;;;;;;;4.00;3.00;;;;;15.94;93.89;101838.50;5037553;28;45524;-79
2023/03/20 11:11:11;;;;;;;;;1.33;1.33;;;;;16.09;94.67;101833.25;5017015;28;45508;-78
2023/03/20 11:13:44;;;;;;;;;2.33;1.00;;;;;16.28;94.20;101833.31;5033590;28;63425;-79
2023/03/20 11:16:22;;;;;;;;;4.00;2.00;;;;;16.44;93.90;101827.13;5035360;28;47524;-79
2023/03/20 11:18:48;;;;;;;;;2.00;2.00;;;;;16.58;93.37;101833.41;5029517;28;45462;-82
2023/03/20 11:21:20;;;;;;;;;4.00;2.00;;;;;16.65;91.73;101827.19;5031560;28;45347;-78
2023/03/20 11:23:45;;;;;;;;;2.33;2.33;;;;;16.70;91.99;101824.53;5035569;28;45562;-79
2023/03/20 11:26:37;;;;;;;;;0.67;0.67;;;;;16.72;91.51;101836.13;5016208;28;47455;-78
2023/03/20 11:29:11;;;;;;;;;1.67;1.67;;;;;16.69;90.57;101844.97;5008469;28;45499;-80